sensor_id;sensor_type;location;lat;lon;timestamp;pressure;altitude;pressure_sealevel;temperature
19040;BMP180;9652;49.014;12.052;2022-09-09T00:02:04;97599.00;;;18.00
19040;BMP180;9652;49.014;12.052;2022-09-09T00:04:37;97587.00;;;18.00
19040;BMP180;9652;49.014;12.052;2022-09-09T00:07:15;97586.00;;;18.00
19040;BMP180;9652;49.014;12.052;2022-09-09T00:09:57;97579.00;;;17.90
19040;BMP180;9652;49.014;12.052;2022-09-09T00:12:36;97593.00;;;17.90
19040;BMP180;9652;49.014;12.052;2022-09-09T00:15:12;97594.00;;;17.80
19040;BMP180;9652;49.014;12.052;2022-09-09T00:17:47;97581.00;;;17.80
19040;BMP180;9652;49.014;12.052;2022-09-09T00:20:28;97581.00;;;17.80
19040;BMP180;9652;49.014;12.052;2022-09-09T00:23:11;97583.00;;;17.80
19040;BMP180;9652;49.014;12.052;2022-09-09T00:25:47;97585.00;;;17.70
19040;BMP180;9652;49.014;12.052;2022-09-09T00:28:20;97574.00;;;17.70
19040;BMP180;9652;49.014;12.052;2022-09-09T00:30:49;97579.00;;;17.70
19040;BMP180;9652;49.014;12.052;2022-09-09T00:33:20;97573.00;;;17.70
19040;BMP180;9652;49.014;12.052;2022-09-09T00:35:54;97586.00;;;17.70
19040;BMP180;9652;49.014;12.052;2022-09-09T00:38:29;97587.00;;;17.60
19040;BMP180;9652;49.014;12.052;2022-09-09T00:41:05;97574.00;;;17.60
19040;BMP180;9652;49.014;12.052;2022-09-09T00:43:38;97586.00;;;17.60
19040;BMP180;9652;49.014;12.052;2022-09-09T00:46:27;97584.00;;;17.60
19040;BMP180;9652;49.014;12.052;2022-09-09T00:49:09;97582.00;;;17.60
19040;BMP180;9652;49.014;12.052;2022-09-09T00:51:58;97584.00;;;17.60
19040;BMP180;9652;49.014;12.052;2022-09-09T00:54:40;97584.00;;;17.70
19040;BMP180;9652;49.014;12.052;2022-09-09T00:57:26;97585.00;;;17.70
19040;BMP180;9652;49.014;12.052;2022-09-09T01:00:22;97588.00;;;17.80
19040;BMP180;9652;49.014;12.052;2022-09-09T01:03:03;97584.00;;;17.80
19040;BMP180;9652;49.014;12.052;2022-09-09T01:05:39;97587.00;;;17.90
19040;BMP180;9652;49.014;12.052;2022-09-09T01:11:27;97596.00;;;18.00
19040;BMP180;9652;49.014;12.052;2022-09-09T01:14:13;97589.00;;;18.10
19040;BMP180;9652;49.014;12.052;2022-09-09T01:16:45;97597.00;;;18.20
19040;BMP180;9652;49.014;12.052;2022-09-09T01:19:27;97603.00;;;18.30
19040;BMP180;9652;49.014;12.052;2022-09-09T01:22:11;97592.00;;;18.30
19040;BMP180;9652;49.014;12.052;2022-09-09T01:25:19;97607.00;;;18.40
19040;BMP180;9652;49.014;12.052;2022-09-09T01:28:08;97603.00;;;18.40
19040;BMP180;9652;49.014;12.052;2022-09-09T01:30:40;97589.00;;;18.50
19040;BMP180;9652;49.014;12.052;2022-09-09T01:33:15;97583.00;;;18.50
19040;BMP180;9652;49.014;12.052;2022-09-09T01:35:50;97580.00;;;18.60
19040;BMP180;9652;49.014;12.052;2022-09-09T01:38:23;97586.00;;;18.60
19040;BMP180;9652;49.014;12.052;2022-09-09T01:40:53;97576.00;;;18.70
19040;BMP180;9652;49.014;12.052;2022-09-09T01:43:28;97577.00;;;18.70
19040;BMP180;9652;49.014;12.052;2022-09-09T01:46:01;97581.00;;;18.70
19040;BMP180;9652;49.014;12.052;2022-09-09T01:48:29;97584.00;;;18.70
19040;BMP180;9652;49.014;12.052;2022-09-09T01:51:02;97585.00;;;18.80
19040;BMP180;9652;49.014;12.052;2022-09-09T01:53:30;97577.00;;;18.80
19040;BMP180;9652;49.014;12.052;2022-09-09T01:56:10;97580.00;;;18.80
19040;BMP180;9652;49.014;12.052;2022-09-09T01:58:58;97582.00;;;18.80
19040;BMP180;9652;49.014;12.052;2022-09-09T02:01:42;97580.00;;;18.80
19040;BMP180;9652;49.014;12.052;2022-09-09T02:04:36;97589.00;;;18.80
19040;BMP180;9652;49.014;12.052;2022-09-09T02:07:23;97574.00;;;18.80
19040;BMP180;9652;49.014;12.052;2022-09-09T02:10:02;97570.00;;;18.80
19040;BMP180;9652;49.014;12.052;2022-09-09T02:12:31;97587.00;;;18.90
19040;BMP180;9652;49.014;12.052;2022-09-09T02:15:09;97588.00;;;18.90
19040;BMP180;9652;49.014;12.052;2022-09-09T02:17:49;97597.00;;;18.90
19040;BMP180;9652;49.014;12.052;2022-09-09T02:20:20;97596.00;;;18.90
19040;BMP180;9652;49.014;12.052;2022-09-09T02:22:57;97594.00;;;18.90
19040;BMP180;9652;49.014;12.052;2022-09-09T02:25:28;97596.00;;;18.90
19040;BMP180;9652;49.014;12.052;2022-09-09T02:28:06;97593.00;;;18.90
19040;BMP180;9652;49.014;12.052;2022-09-09T02:30:38;97591.00;;;18.90
19040;BMP180;9652;49.014;12.052;2022-09-09T02:33:09;97593.00;;;18.90
19040;BMP180;9652;49.014;12.052;2022-09-09T02:35:44;97598.00;;;18.90
19040;BMP180;9652;49.014;12.052;2022-09-09T02:38:16;97589.00;;;18.90
19040;BMP180;9652;49.014;12.052;2022-09-09T02:40:55;97594.00;;;18.90
19040;BMP180;9652;49.014;12.052;2022-09-09T02:43:22;97571.00;;;19.00
19040;BMP180;9652;49.014;12.052;2022-09-09T02:46:03;97582.00;;;18.90
19040;BMP180;9652;49.014;12.052;2022-09-09T02:48:55;97598.00;;;18.90
19040;BMP180;9652;49.014;12.052;2022-09-09T02:51:40;97584.00;;;18.90
19040;BMP180;9652;49.014;12.052;2022-09-09T02:54:22;97585.00;;;18.80
19040;BMP180;9652;49.014;12.052;2022-09-09T02:56:54;97588.00;;;18.80
19040;BMP180;9652;49.014;12.052;2022-09-09T02:59:30;97568.00;;;18.80
19040;BMP180;9652;49.014;12.052;2022-09-09T03:01:59;97578.00;;;18.80
19040;BMP180;9652;49.014;12.052;2022-09-09T03:04:27;97581.00;;;18.80
19040;BMP180;9652;49.014;12.052;2022-09-09T03:06:57;97576.00;;;18.80
19040;BMP180;9652;49.014;12.052;2022-09-09T03:09:24;97577.00;;;18.80
19040;BMP180;9652;49.014;12.052;2022-09-09T03:11:53;97562.00;;;18.80
19040;BMP180;9652;49.014;12.052;2022-09-09T03:14:21;97588.00;;;18.80
19040;BMP180;9652;49.014;12.052;2022-09-09T03:16:52;97515.00;;;18.80
19040;BMP180;9652;49.014;12.052;2022-09-09T03:19:21;97568.00;;;18.80
19040;BMP180;9652;49.014;12.052;2022-09-09T03:21:48;97584.00;;;18.80
19040;BMP180;9652;49.014;12.052;2022-09-09T03:24:16;97583.00;;;18.80
19040;BMP180;9652;49.014;12.052;2022-09-09T03:26:43;97585.00;;;18.80
19040;BMP180;9652;49.014;12.052;2022-09-09T03:29:14;97527.00;;;18.80
19040;BMP180;9652;49.014;12.052;2022-09-09T03:31:41;97586.00;;;18.80
19040;BMP180;9652;49.014;12.052;2022-09-09T03:34:10;97589.00;;;18.80
19040;BMP180;9652;49.014;12.052;2022-09-09T03:36:39;97579.00;;;18.70
19040;BMP180;9652;49.014;12.052;2022-09-09T03:39:07;97589.00;;;18.70
19040;BMP180;9652;49.014;12.052;2022-09-09T03:41:35;97586.00;;;18.70
19040;BMP180;9652;49.014;12.052;2022-09-09T03:44:04;97591.00;;;18.70
19040;BMP180;9652;49.014;12.052;2022-09-09T03:46:36;97582.00;;;18.70
19040;BMP180;9652;49.014;12.052;2022-09-09T03:49:03;97587.00;;;18.70
19040;BMP180;9652;49.014;12.052;2022-09-09T03:51:31;97587.00;;;18.70
19040;BMP180;9652;49.014;12.052;2022-09-09T03:54:05;97574.00;;;18.60
19040;BMP180;9652;49.014;12.052;2022-09-09T03:56:34;97594.00;;;18.60
19040;BMP180;9652;49.014;12.052;2022-09-09T03:59:02;97592.00;;;18.60
19040;BMP180;9652;49.014;12.052;2022-09-09T04:01:30;97585.00;;;18.60
19040;BMP180;9652;49.014;12.052;2022-09-09T04:03:57;97575.00;;;18.60
19040;BMP180;9652;49.014;12.052;2022-09-09T04:06:25;97593.00;;;18.60
19040;BMP180;9652;49.014;12.052;2022-09-09T04:08:52;97590.00;;;18.60
19040;BMP180;9652;49.014;12.052;2022-09-09T04:11:21;97589.00;;;18.60
19040;BMP180;9652;49.014;12.052;2022-09-09T04:13:51;97576.00;;;18.60
19040;BMP180;9652;49.014;12.052;2022-09-09T04:16:18;97586.00;;;18.60
19040;BMP180;9652;49.014;12.052;2022-09-09T04:18:46;97580.00;;;18.60
19040;BMP180;9652;49.014;12.052;2022-09-09T04:21:16;97590.00;;;18.60
19040;BMP180;9652;49.014;12.052;2022-09-09T04:23:43;97588.00;;;18.60
19040;BMP180;9652;49.014;12.052;2022-09-09T04:26:10;97582.00;;;18.60
19040;BMP180;9652;49.014;12.052;2022-09-09T04:28:40;97580.00;;;18.60
19040;BMP180;9652;49.014;12.052;2022-09-09T04:31:17;97522.00;;;18.60
19040;BMP180;9652;49.014;12.052;2022-09-09T04:33:46;97584.00;;;18.60
19040;BMP180;9652;49.014;12.052;2022-09-09T04:36:14;97578.00;;;18.60
19040;BMP180;9652;49.014;12.052;2022-09-09T04:38:42;97582.00;;;18.50
19040;BMP180;9652;49.014;12.052;2022-09-09T04:41:10;97580.00;;;18.50
19040;BMP180;9652;49.014;12.052;2022-09-09T04:43:41;97580.00;;;18.50
19040;BMP180;9652;49.014;12.052;2022-09-09T04:46:09;97576.00;;;18.60
19040;BMP180;9652;49.014;12.052;2022-09-09T04:48:36;97572.00;;;18.60
19040;BMP180;9652;49.014;12.052;2022-09-09T04:51:09;97576.00;;;18.50
19040;BMP180;9652;49.014;12.052;2022-09-09T04:53:38;97563.00;;;18.50
19040;BMP180;9652;49.014;12.052;2022-09-09T04:56:09;97573.00;;;18.50
19040;BMP180;9652;49.014;12.052;2022-09-09T04:58:42;97568.00;;;18.50
19040;BMP180;9652;49.014;12.052;2022-09-09T05:01:12;97565.00;;;18.50
19040;BMP180;9652;49.014;12.052;2022-09-09T05:03:42;97562.00;;;18.50
19040;BMP180;9652;49.014;12.052;2022-09-09T05:06:14;97573.00;;;18.50
19040;BMP180;9652;49.014;12.052;2022-09-09T05:08:43;97576.00;;;18.50
19040;BMP180;9652;49.014;12.052;2022-09-09T05:11:16;97573.00;;;18.50
19040;BMP180;9652;49.014;12.052;2022-09-09T05:13:45;97559.00;;;18.50
19040;BMP180;9652;49.014;12.052;2022-09-09T05:16:13;97571.00;;;18.50
19040;BMP180;9652;49.014;12.052;2022-09-09T05:18:41;97571.00;;;18.50
19040;BMP180;9652;49.014;12.052;2022-09-09T05:21:10;97566.00;;;18.50
19040;BMP180;9652;49.014;12.052;2022-09-09T05:23:38;97580.00;;;18.50
19040;BMP180;9652;49.014;12.052;2022-09-09T05:26:08;97549.00;;;18.60
19040;BMP180;9652;49.014;12.052;2022-09-09T05:28:36;97579.00;;;18.60
19040;BMP180;9652;49.014;12.052;2022-09-09T05:31:07;97576.00;;;18.60
19040;BMP180;9652;49.014;12.052;2022-09-09T05:33:36;97593.00;;;18.60
19040;BMP180;9652;49.014;12.052;2022-09-09T05:36:09;97597.00;;;18.60
19040;BMP180;9652;49.014;12.052;2022-09-09T05:38:36;97591.00;;;18.70
19040;BMP180;9652;49.014;12.052;2022-09-09T05:41:04;97591.00;;;18.70
19040;BMP180;9652;49.014;12.052;2022-09-09T05:43:31;97600.00;;;18.80
19040;BMP180;9652;49.014;12.052;2022-09-09T05:46:04;97619.00;;;18.80
19040;BMP180;9652;49.014;12.052;2022-09-09T05:48:34;97610.00;;;18.90
19040;BMP180;9652;49.014;12.052;2022-09-09T05:51:03;97610.00;;;18.90
19040;BMP180;9652;49.014;12.052;2022-09-09T05:53:31;97615.00;;;19.00
19040;BMP180;9652;49.014;12.052;2022-09-09T05:56:02;97608.00;;;19.00
19040;BMP180;9652;49.014;12.052;2022-09-09T05:58:32;97614.00;;;19.10
19040;BMP180;9652;49.014;12.052;2022-09-09T06:01:07;97612.00;;;19.10
19040;BMP180;9652;49.014;12.052;2022-09-09T06:03:37;97610.00;;;19.20
19040;BMP180;9652;49.014;12.052;2022-09-09T06:06:07;97615.00;;;19.20
19040;BMP180;9652;49.014;12.052;2022-09-09T06:08:37;97619.00;;;19.20
19040;BMP180;9652;49.014;12.052;2022-09-09T06:11:08;97624.00;;;19.20
19040;BMP180;9652;49.014;12.052;2022-09-09T06:13:37;97602.00;;;19.20
19040;BMP180;9652;49.014;12.052;2022-09-09T06:16:09;97624.00;;;18.90
19040;BMP180;9652;49.014;12.052;2022-09-09T06:18:39;97620.00;;;19.20
19040;BMP180;9652;49.014;12.052;2022-09-09T06:21:13;97615.00;;;19.20
19040;BMP180;9652;49.014;12.052;2022-09-09T06:23:42;97610.00;;;19.20
19040;BMP180;9652;49.014;12.052;2022-09-09T06:26:12;97557.00;;;19.20
19040;BMP180;9652;49.014;12.052;2022-09-09T06:28:41;97610.00;;;19.20
19040;BMP180;9652;49.014;12.052;2022-09-09T06:31:12;97620.00;;;19.20
19040;BMP180;9652;49.014;12.052;2022-09-09T06:33:41;97622.00;;;19.20
19040;BMP180;9652;49.014;12.052;2022-09-09T06:36:12;97621.00;;;19.30
19040;BMP180;9652;49.014;12.052;2022-09-09T06:38:41;97621.00;;;19.30
19040;BMP180;9652;49.014;12.052;2022-09-09T06:41:12;97601.00;;;19.40
19040;BMP180;9652;49.014;12.052;2022-09-09T06:43:40;97611.00;;;19.50
19040;BMP180;9652;49.014;12.052;2022-09-09T06:46:12;97612.00;;;19.60
19040;BMP180;9652;49.014;12.052;2022-09-09T06:48:41;97604.00;;;19.70
19040;BMP180;9652;49.014;12.052;2022-09-09T06:51:12;97613.00;;;19.70
19040;BMP180;9652;49.014;12.052;2022-09-09T06:53:43;97617.00;;;19.70
19040;BMP180;9652;49.014;12.052;2022-09-09T06:56:21;97622.00;;;19.70
19040;BMP180;9652;49.014;12.052;2022-09-09T06:58:51;97613.00;;;19.70
19040;BMP180;9652;49.014;12.052;2022-09-09T07:01:28;97625.00;;;19.80
19040;BMP180;9652;49.014;12.052;2022-09-09T07:04:00;97618.00;;;19.80
19040;BMP180;9652;49.014;12.052;2022-09-09T07:06:30;97625.00;;;19.80
19040;BMP180;9652;49.014;12.052;2022-09-09T07:09:01;97635.00;;;19.90
19040;BMP180;9652;49.014;12.052;2022-09-09T07:11:33;97631.00;;;19.90
19040;BMP180;9652;49.014;12.052;2022-09-09T07:14:01;97631.00;;;20.00
19040;BMP180;9652;49.014;12.052;2022-09-09T07:16:30;97644.00;;;20.10
19040;BMP180;9652;49.014;12.052;2022-09-09T07:19:00;97633.00;;;20.20
19040;BMP180;9652;49.014;12.052;2022-09-09T07:21:30;97632.00;;;20.40
19040;BMP180;9652;49.014;12.052;2022-09-09T07:23:58;97635.00;;;20.50
19040;BMP180;9652;49.014;12.052;2022-09-09T07:26:29;97631.00;;;20.60
19040;BMP180;9652;49.014;12.052;2022-09-09T07:28:58;97639.00;;;20.70
19040;BMP180;9652;49.014;12.052;2022-09-09T07:31:28;97491.00;;;20.80
19040;BMP180;9652;49.014;12.052;2022-09-09T07:33:59;97661.00;;;20.90
19040;BMP180;9652;49.014;12.052;2022-09-09T07:36:29;97668.00;;;21.10
19040;BMP180;9652;49.014;12.052;2022-09-09T07:38:59;97657.00;;;21.20
19040;BMP180;9652;49.014;12.052;2022-09-09T07:41:31;97701.00;;;21.30
19040;BMP180;9652;49.014;12.052;2022-09-09T07:44:05;97676.00;;;21.30
19040;BMP180;9652;49.014;12.052;2022-09-09T07:46:34;97678.00;;;21.30
19040;BMP180;9652;49.014;12.052;2022-09-09T07:49:03;97569.00;;;21.10
19040;BMP180;9652;49.014;12.052;2022-09-09T07:51:37;97686.00;;;21.20
19040;BMP180;9652;49.014;12.052;2022-09-09T07:54:07;97687.00;;;21.10
19040;BMP180;9652;49.014;12.052;2022-09-09T07:56:38;97674.00;;;21.10
19040;BMP180;9652;49.014;12.052;2022-09-09T07:59:07;97555.00;;;20.90
19040;BMP180;9652;49.014;12.052;2022-09-09T08:01:39;97684.00;;;20.80
19040;BMP180;9652;49.014;12.052;2022-09-09T08:04:11;97690.00;;;20.70
19040;BMP180;9652;49.014;12.052;2022-09-09T08:06:44;97687.00;;;20.60
19040;BMP180;9652;49.014;12.052;2022-09-09T08:09:14;97600.00;;;20.50
19040;BMP180;9652;49.014;12.052;2022-09-09T08:11:42;97682.00;;;20.20
19040;BMP180;9652;49.014;12.052;2022-09-09T08:14:11;97679.00;;;20.20
19040;BMP180;9652;49.014;12.052;2022-09-09T08:16:42;97672.00;;;20.20
19040;BMP180;9652;49.014;12.052;2022-09-09T08:19:12;97677.00;;;20.10
19040;BMP180;9652;49.014;12.052;2022-09-09T08:21:42;97702.00;;;20.10
19040;BMP180;9652;49.014;12.052;2022-09-09T08:24:13;97681.00;;;20.00
19040;BMP180;9652;49.014;12.052;2022-09-09T08:26:44;97716.00;;;19.20
19040;BMP180;9652;49.014;12.052;2022-09-09T08:29:13;97695.00;;;19.90
19040;BMP180;9652;49.014;12.052;2022-09-09T08:31:45;97672.00;;;19.80
19040;BMP180;9652;49.014;12.052;2022-09-09T08:34:15;97686.00;;;19.80
19040;BMP180;9652;49.014;12.052;2022-09-09T08:36:45;97683.00;;;19.70
19040;BMP180;9652;49.014;12.052;2022-09-09T08:39:15;97682.00;;;19.70
19040;BMP180;9652;49.014;12.052;2022-09-09T08:45:04;97702.00;;;19.60
19040;BMP180;9652;49.014;12.052;2022-09-09T08:47:51;97714.00;;;19.60
19040;BMP180;9652;49.014;12.052;2022-09-09T08:50:26;97700.00;;;19.70
19040;BMP180;9652;49.014;12.052;2022-09-09T08:53:04;97695.00;;;19.70
19040;BMP180;9652;49.014;12.052;2022-09-09T08:55:42;97703.00;;;19.80
19040;BMP180;9652;49.014;12.052;2022-09-09T08:58:16;97651.00;;;19.90
19040;BMP180;9652;49.014;12.052;2022-09-09T09:01:00;97680.00;;;20.10
19040;BMP180;9652;49.014;12.052;2022-09-09T09:03:43;97689.00;;;20.20
19040;BMP180;9652;49.014;12.052;2022-09-09T09:06:30;97671.00;;;20.40
19040;BMP180;9652;49.014;12.052;2022-09-09T09:09:09;97683.00;;;20.50
19040;BMP180;9652;49.014;12.052;2022-09-09T09:11:39;97702.00;;;20.70
19040;BMP180;9652;49.014;12.052;2022-09-09T09:14:15;97698.00;;;20.80
19040;BMP180;9652;49.014;12.052;2022-09-09T09:16:53;97683.00;;;20.90
19040;BMP180;9652;49.014;12.052;2022-09-09T09:19:21;97699.00;;;21.10
19040;BMP180;9652;49.014;12.052;2022-09-09T09:22:00;97702.00;;;21.20
19040;BMP180;9652;49.014;12.052;2022-09-09T09:24:40;97688.00;;;21.40
19040;BMP180;9652;49.014;12.052;2022-09-09T09:27:14;97704.00;;;21.50
19040;BMP180;9652;49.014;12.052;2022-09-09T09:29:49;97696.00;;;21.60
19040;BMP180;9652;49.014;12.052;2022-09-09T09:32:20;97695.00;;;21.70
19040;BMP180;9652;49.014;12.052;2022-09-09T09:34:51;97628.00;;;21.70
19040;BMP180;9652;49.014;12.052;2022-09-09T09:37:30;97662.00;;;21.80
19040;BMP180;9652;49.014;12.052;2022-09-09T09:40:09;97674.00;;;21.80
19040;BMP180;9652;49.014;12.052;2022-09-09T09:42:48;97700.00;;;21.90
19040;BMP180;9652;49.014;12.052;2022-09-09T09:45:26;97677.00;;;22.00
19040;BMP180;9652;49.014;12.052;2022-09-09T09:48:01;97688.00;;;22.10
19040;BMP180;9652;49.014;12.052;2022-09-09T09:50:32;97679.00;;;22.20
19040;BMP180;9652;49.014;12.052;2022-09-09T09:53:04;97676.00;;;22.30
19040;BMP180;9652;49.014;12.052;2022-09-09T09:55:36;97670.00;;;22.50
19040;BMP180;9652;49.014;12.052;2022-09-09T09:58:06;97659.00;;;22.60
19040;BMP180;9652;49.014;12.052;2022-09-09T10:00:34;97666.00;;;22.70
19040;BMP180;9652;49.014;12.052;2022-09-09T10:03:25;97672.00;;;22.90
19040;BMP180;9652;49.014;12.052;2022-09-09T10:05:54;97654.00;;;23.00
19040;BMP180;9652;49.014;12.052;2022-09-09T10:08:25;97674.00;;;22.70
19040;BMP180;9652;49.014;12.052;2022-09-09T10:11:15;97564.00;;;23.30
19040;BMP180;9652;49.014;12.052;2022-09-09T10:13:56;97665.00;;;23.40
19040;BMP180;9652;49.014;12.052;2022-09-09T10:16:54;97674.00;;;23.60
19040;BMP180;9652;49.014;12.052;2022-09-09T10:19:30;97667.00;;;23.70
19040;BMP180;9652;49.014;12.052;2022-09-09T10:25:34;97674.00;;;23.90
19040;BMP180;9652;49.014;12.052;2022-09-09T10:28:33;97722.00;;;24.00
19040;BMP180;9652;49.014;12.052;2022-09-09T10:31:19;97641.00;;;24.10
19040;BMP180;9652;49.014;12.052;2022-09-09T10:33:54;97670.00;;;24.20
19040;BMP180;9652;49.014;12.052;2022-09-09T10:36:25;97663.00;;;24.20
19040;BMP180;9652;49.014;12.052;2022-09-09T10:39:01;97676.00;;;24.30
19040;BMP180;9652;49.014;12.052;2022-09-09T10:41:45;97670.00;;;24.40
19040;BMP180;9652;49.014;12.052;2022-09-09T10:44:34;97615.00;;;24.40
19040;BMP180;9652;49.014;12.052;2022-09-09T10:50:37;97624.00;;;24.60
19040;BMP180;9652;49.014;12.052;2022-09-09T10:53:17;97674.00;;;24.60
19040;BMP180;9652;49.014;12.052;2022-09-09T10:55:53;97655.00;;;24.70
19040;BMP180;9652;49.014;12.052;2022-09-09T10:58:31;97589.00;;;24.70
19040;BMP180;9652;49.014;12.052;2022-09-09T11:01:11;97590.00;;;24.80
19040;BMP180;9652;49.014;12.052;2022-09-09T11:03:41;97636.00;;;24.80
19040;BMP180;9652;49.014;12.052;2022-09-09T11:06:15;97671.00;;;24.80
19040;BMP180;9652;49.014;12.052;2022-09-09T11:08:43;97683.00;;;24.80
19040;BMP180;9652;49.014;12.052;2022-09-09T11:11:17;97678.00;;;24.80
19040;BMP180;9652;49.014;12.052;2022-09-09T11:13:55;97678.00;;;24.70
19040;BMP180;9652;49.014;12.052;2022-09-09T11:16:30;97661.00;;;24.70
19040;BMP180;9652;49.014;12.052;2022-09-09T11:19:10;97667.00;;;24.60
19040;BMP180;9652;49.014;12.052;2022-09-09T11:21:46;97657.00;;;24.50
19040;BMP180;9652;49.014;12.052;2022-09-09T11:24:21;97688.00;;;24.40
19040;BMP180;9652;49.014;12.052;2022-09-09T11:26:55;97592.00;;;24.40
19040;BMP180;9652;49.014;12.052;2022-09-09T11:33:16;97654.00;;;24.30
19040;BMP180;9652;49.014;12.052;2022-09-09T11:36:10;97645.00;;;24.30
19040;BMP180;9652;49.014;12.052;2022-09-09T11:38:46;97658.00;;;24.30
19040;BMP180;9652;49.014;12.052;2022-09-09T11:41:15;97658.00;;;24.30
19040;BMP180;9652;49.014;12.052;2022-09-09T11:43:45;97663.00;;;24.40
19040;BMP180;9652;49.014;12.052;2022-09-09T11:46:16;97656.00;;;24.40
19040;BMP180;9652;49.014;12.052;2022-09-09T11:48:57;97654.00;;;24.50
19040;BMP180;9652;49.014;12.052;2022-09-09T11:51:27;97643.00;;;24.70
19040;BMP180;9652;49.014;12.052;2022-09-09T11:53:58;97651.00;;;24.80
19040;BMP180;9652;49.014;12.052;2022-09-09T11:56:30;97644.00;;;24.90
19040;BMP180;9652;49.014;12.052;2022-09-09T11:59:05;97643.00;;;25.10
19040;BMP180;9652;49.014;12.052;2022-09-09T12:01:42;97650.00;;;25.20
19040;BMP180;9652;49.014;12.052;2022-09-09T12:04:29;97641.00;;;25.40
19040;BMP180;9652;49.014;12.052;2022-09-09T12:07:02;97563.00;;;25.40
19040;BMP180;9652;49.014;12.052;2022-09-09T12:09:45;97576.00;;;25.50
19040;BMP180;9652;49.014;12.052;2022-09-09T12:12:31;97648.00;;;25.60
19040;BMP180;9652;49.014;12.052;2022-09-09T12:15:17;97633.00;;;25.60
19040;BMP180;9652;49.014;12.052;2022-09-09T12:17:50;97631.00;;;25.60
19040;BMP180;9652;49.014;12.052;2022-09-09T12:20:21;97631.00;;;25.70
19040;BMP180;9652;49.014;12.052;2022-09-09T12:23:05;97640.00;;;25.70
19040;BMP180;9652;49.014;12.052;2022-09-09T12:25:57;97639.00;;;25.70
19040;BMP180;9652;49.014;12.052;2022-09-09T12:28:40;97610.00;;;25.80
19040;BMP180;9652;49.014;12.052;2022-09-09T12:31:17;97640.00;;;25.80
19040;BMP180;9652;49.014;12.052;2022-09-09T12:33:48;97634.00;;;25.90
19040;BMP180;9652;49.014;12.052;2022-09-09T12:36:21;97622.00;;;26.00
19040;BMP180;9652;49.014;12.052;2022-09-09T12:38:48;97617.00;;;26.00
19040;BMP180;9652;49.014;12.052;2022-09-09T12:41:22;97622.00;;;26.00
19040;BMP180;9652;49.014;12.052;2022-09-09T12:43:51;97609.00;;;26.00
19040;BMP180;9652;49.014;12.052;2022-09-09T12:46:30;97612.00;;;26.00
19040;BMP180;9652;49.014;12.052;2022-09-09T12:49:04;97614.00;;;26.00
19040;BMP180;9652;49.014;12.052;2022-09-09T12:51:33;97574.00;;;25.90
19040;BMP180;9652;49.014;12.052;2022-09-09T12:54:01;97598.00;;;25.80
19040;BMP180;9652;49.014;12.052;2022-09-09T12:56:31;97599.00;;;25.70
19040;BMP180;9652;49.014;12.052;2022-09-09T12:59:01;97599.00;;;25.50
19040;BMP180;9652;49.014;12.052;2022-09-09T13:01:31;97599.00;;;25.40
19040;BMP180;9652;49.014;12.052;2022-09-09T13:04:00;97593.00;;;25.20
19040;BMP180;9652;49.014;12.052;2022-09-09T13:06:31;97601.00;;;25.10
19040;BMP180;9652;49.014;12.052;2022-09-09T13:09:01;97565.00;;;24.90
19040;BMP180;9652;49.014;12.052;2022-09-09T13:11:35;97576.00;;;24.80
19040;BMP180;9652;49.014;12.052;2022-09-09T13:14:04;97576.00;;;24.70
19040;BMP180;9652;49.014;12.052;2022-09-09T13:16:35;97554.00;;;24.60
19040;BMP180;9652;49.014;12.052;2022-09-09T13:19:09;97569.00;;;24.60
19040;BMP180;9652;49.014;12.052;2022-09-09T13:21:42;97555.00;;;24.60
19040;BMP180;9652;49.014;12.052;2022-09-09T13:24:28;97556.00;;;24.70
19040;BMP180;9652;49.014;12.052;2022-09-09T13:26:57;97544.00;;;24.90
19040;BMP180;9652;49.014;12.052;2022-09-09T13:29:28;97550.00;;;25.10
19040;BMP180;9652;49.014;12.052;2022-09-09T13:32:05;97551.00;;;25.20
19040;BMP180;9652;49.014;12.052;2022-09-09T13:34:35;97544.00;;;25.30
19040;BMP180;9652;49.014;12.052;2022-09-09T13:37:06;97542.00;;;25.40
19040;BMP180;9652;49.014;12.052;2022-09-09T13:39:35;97546.00;;;25.50
19040;BMP180;9652;49.014;12.052;2022-09-09T13:42:04;97533.00;;;25.50
19040;BMP180;9652;49.014;12.052;2022-09-09T13:44:38;97543.00;;;25.60
19040;BMP180;9652;49.014;12.052;2022-09-09T13:47:20;97548.00;;;25.50
19040;BMP180;9652;49.014;12.052;2022-09-09T13:49:47;97549.00;;;25.50
19040;BMP180;9652;49.014;12.052;2022-09-09T13:52:17;97544.00;;;25.50
19040;BMP180;9652;49.014;12.052;2022-09-09T13:54:48;97548.00;;;25.60
19040;BMP180;9652;49.014;12.052;2022-09-09T13:57:18;97539.00;;;25.70
19040;BMP180;9652;49.014;12.052;2022-09-09T13:59:47;97492.00;;;25.80
19040;BMP180;9652;49.014;12.052;2022-09-09T14:02:15;97519.00;;;25.90
19040;BMP180;9652;49.014;12.052;2022-09-09T14:04:43;97514.00;;;26.00
19040;BMP180;9652;49.014;12.052;2022-09-09T14:07:12;97536.00;;;26.10
19040;BMP180;9652;49.014;12.052;2022-09-09T14:09:42;97548.00;;;26.20
19040;BMP180;9652;49.014;12.052;2022-09-09T14:12:10;97545.00;;;26.40
19040;BMP180;9652;49.014;12.052;2022-09-09T14:14:38;97533.00;;;26.60
19040;BMP180;9652;49.014;12.052;2022-09-09T14:17:05;97537.00;;;26.80
19040;BMP180;9652;49.014;12.052;2022-09-09T14:19:32;97532.00;;;27.10
19040;BMP180;9652;49.014;12.052;2022-09-09T14:21:59;97533.00;;;27.40
19040;BMP180;9652;49.014;12.052;2022-09-09T14:24:27;97543.00;;;27.70
19040;BMP180;9652;49.014;12.052;2022-09-09T14:26:56;97536.00;;;27.90
19040;BMP180;9652;49.014;12.052;2022-09-09T14:29:23;97544.00;;;28.00
19040;BMP180;9652;49.014;12.052;2022-09-09T14:31:52;97561.00;;;28.20
19040;BMP180;9652;49.014;12.052;2022-09-09T14:34:19;97549.00;;;28.30
19040;BMP180;9652;49.014;12.052;2022-09-09T14:36:46;97559.00;;;28.50
19040;BMP180;9652;49.014;12.052;2022-09-09T14:39:13;97531.00;;;28.60
19040;BMP180;9652;49.014;12.052;2022-09-09T14:41:40;97514.00;;;28.60
19040;BMP180;9652;49.014;12.052;2022-09-09T14:44:08;97542.00;;;28.60
19040;BMP180;9652;49.014;12.052;2022-09-09T14:46:35;97525.00;;;28.60
19040;BMP180;9652;49.014;12.052;2022-09-09T14:49:02;97540.00;;;28.50
19040;BMP180;9652;49.014;12.052;2022-09-09T14:51:30;97541.00;;;28.30
19040;BMP180;9652;49.014;12.052;2022-09-09T14:53:58;97542.00;;;28.20
19040;BMP180;9652;49.014;12.052;2022-09-09T14:56:30;97539.00;;;28.10
19040;BMP180;9652;49.014;12.052;2022-09-09T14:58:58;97549.00;;;28.00
19040;BMP180;9652;49.014;12.052;2022-09-09T15:01:30;97542.00;;;27.90